Time;durP1;ratioP1;P1;durP2;ratioP2;P2;SDS_P1;SDS_P2;PMS_P1;PMS_P2;Temp;Humidity;BMP_temperature;BMP_pressure;BME280_temperature;BME280_humidity;BME280_pressure;Samples;Min_cycle;Max_cycle;Signal;HPM_P1;HPM_P2
2022/02/07 00:01:17;;;;;;;0.60;0.60;;;5.50;99.90;;;;;;4996820;28;20580;-49
2022/02/07 00:03:55;;;;;;;2.10;1.05;;;5.50;99.90;;;;;;4995256;28;20035;-42
2022/02/07 00:06:20;;;;;;;1.23;1.00;;;5.60;99.90;;;;;;4995760;28;20034;-45
2022/02/07 00:08:46;;;;;;;1.42;0.80;;;5.60;99.90;;;;;;4994581;28;20371;-47
2022/02/07 00:11:13;;;;;;;0.85;0.65;;;5.60;99.90;;;;;;4995589;28;20394;-51
2022/02/07 00:13:39;;;;;;;2.85;0.50;;;5.50;99.90;;;;;;4995444;28;20029;-45
2022/02/07 00:16:05;;;;;;;0.68;0.68;;;5.50;99.90;;;;;;4995713;28;20477;-45
2022/02/07 00:18:32;;;;;;;0.80;0.70;;;5.50;99.90;;;;;;4996077;28;20093;-49
2022/02/07 00:20:58;;;;;;;0.95;0.60;;;5.50;99.90;;;;;;4995469;28;20026;-42
2022/02/07 00:23:24;;;;;;;7.38;1.00;;;5.50;99.90;;;;;;4995262;28;20038;-45
2022/02/07 00:25:50;;;;;;;3.55;0.60;;;5.50;99.90;;;;;;4995280;28;20056;-47
2022/02/07 00:28:15;;;;;;;1.75;0.75;;;5.50;99.90;;;;;;4995433;28;20030;-47
2022/02/07 00:30:41;;;;;;;1.48;0.60;;;5.60;99.90;;;;;;4995195;28;20058;-42
2022/02/07 00:33:07;;;;;;;4.55;0.77;;;5.60;99.90;;;;;;4994925;28;20026;-46
2022/02/07 00:35:32;;;;;;;3.80;0.90;;;5.60;99.90;;;;;;4995180;28;20027;-45
2022/02/07 00:38:03;;;;;;;1.27;0.80;;;5.60;99.90;;;;;;4995416;28;20041;-47
2022/02/07 00:45:51;;;;;;;1.73;0.95;;;5.60;99.90;;;;;;4995330;28;20058;-40
2022/02/07 00:48:16;;;;;;;;;;;5.60;99.90;;;;;;4995583;28;20440;-46
2022/02/07 00:50:43;;;;;;;1.58;0.95;;;5.50;99.90;;;;;;4995742;28;19906;-46
2022/02/07 00:53:11;;;;;;;4.13;1.00;;;5.40;99.90;;;;;;4994763;28;20037;-46
2022/02/07 00:55:37;;;;;;;1.45;0.70;;;5.50;99.90;;;;;;4995367;28;20513;-47
2022/02/07 00:58:03;;;;;;;0.80;0.80;;;5.40;99.90;;;;;;4995297;28;20030;-45
2022/02/07 01:00:29;;;;;;;2.47;1.17;;;5.30;99.90;;;;;;4994230;28;20441;-47
2022/02/07 01:02:55;;;;;;;2.80;1.10;;;5.30;99.90;;;;;;4995322;28;20382;-40
2022/02/07 01:05:20;;;;;;;3.30;2.10;;;5.30;99.90;;;;;;4995013;28;20038;-46
2022/02/07 01:07:49;;;;;;;1.83;0.90;;;5.30;99.90;;;;;;4995483;28;20038;-46
2022/02/07 01:10:20;;;;;;;7.35;1.40;;;5.30;99.90;;;;;;4995934;28;20069;-50
2022/02/07 01:18:45;;;;;;;5.10;1.30;;;5.40;99.90;;;;;;4993106;28;20124;-48
2022/02/07 01:21:50;;;;;;;5.45;1.20;;;5.30;99.90;;;;;;4996118;28;20038;-47
2022/02/07 01:48:58;;;;;;;7.05;2.03;;;5.10;99.90;;;;;;4983321;28;20077;-46
2022/02/07 01:54:20;;;;;;;3.03;1.08;;;5.20;99.90;;;;;;4984480;28;20485;-41
2022/02/07 01:56:45;;;;;;;11.18;1.77;;;5.20;99.90;;;;;;4984830;28;20033;-46
2022/02/07 01:59:11;;;;;;;8.68;1.98;;;5.20;99.90;;;;;;4981620;28;20287;-40
2022/02/07 02:01:37;;;;;;;3.53;0.80;;;5.30;99.90;;;;;;4983369;28;20113;-39
2022/02/07 02:04:07;;;;;;;1.85;0.70;;;5.30;99.90;;;;;;4982926;28;20106;-44
2022/02/07 02:06:37;;;;;;;2.28;0.43;;;5.00;99.90;;;;;;5031394;22;20056;-45
2022/02/07 02:09:04;;;;;;;1.83;0.60;;;4.60;99.90;;;;;;5037397;28;20456;-44
2022/02/07 02:11:30;;;;;;;1.65;0.65;;;4.50;99.90;;;;;;5043149;28;20543;-44
2022/02/07 02:16:32;;;;;;;4.00;1.00;;;4.10;99.90;;;;;;5043537;28;20025;-44
2022/02/07 02:22:32;;;;;;;5.97;1.02;;;4.00;99.90;;;;;;5049075;28;20029;-45
2022/02/07 02:38:52;;;;;;;2.13;1.52;;;3.70;99.90;;;;;;5032537;28;20033;-49
2022/02/07 02:46:34;;;;;;;1.40;1.10;;;3.60;99.90;;;;;;5031984;28;20029;-45
2022/02/07 02:49:02;;;;;;;5.43;1.35;;;3.60;99.90;;;;;;5031959;28;20400;-44
2022/02/07 02:51:29;;;;;;;3.00;0.85;;;3.70;99.90;;;;;;5031790;28;20018;-43
2022/02/07 02:53:55;;;;;;;1.85;0.95;;;3.70;99.90;;;;;;5031696;28;20028;-45
2022/02/07 02:56:20;;;;;;;6.35;1.17;;;3.80;99.90;;;;;;5031732;28;20489;-46
2022/02/07 02:58:46;;;;;;;8.20;1.10;;;3.70;99.90;;;;;;5031786;28;20037;-45
2022/02/07 03:01:12;;;;;;;2.33;1.00;;;3.80;99.90;;;;;;5031577;28;20599;-44
2022/02/07 03:03:37;;;;;;;4.38;1.13;;;3.80;99.90;;;;;;5031497;28;20061;-44
2022/02/07 03:06:03;;;;;;;5.43;1.30;;;3.80;99.90;;;;;;5031424;28;20068;-45
2022/02/07 03:08:29;;;;;;;3.97;1.20;;;3.80;99.90;;;;;;5031534;28;20507;-47
2022/02/07 03:11:05;;;;;;;4.00;1.13;;;3.90;99.90;;;;;;5031317;28;20576;-45
2022/02/07 03:16:39;;;;;;;7.65;1.45;;;3.90;99.90;;;;;;5031756;28;20339;-45
2022/02/07 03:19:06;;;;;;;4.07;1.02;;;4.00;99.90;;;;;;5031644;28;20044;-42
2022/02/07 03:21:33;;;;;;;4.43;1.15;;;4.10;99.90;;;;;;5031469;28;20105;-43
2022/02/07 03:23:59;;;;;;;4.78;1.00;;;4.10;99.90;;;;;;5030965;28;20041;-44
2022/02/07 03:26:24;;;;;;;3.50;1.08;;;4.10;99.90;;;;;;5031728;28;20389;-44
2022/02/07 03:28:51;;;;;;;5.00;2.45;;;4.10;99.90;;;;;;5031816;28;20147;-45
2022/02/07 03:31:17;;;;;;;2.97;1.30;;;4.10;99.90;;;;;;5032085;28;20487;-44
2022/02/07 03:33:43;;;;;;;4.75;2.17;;;4.10;99.90;;;;;;5032289;28;20026;-44
2022/02/07 03:36:10;;;;;;;3.08;1.25;;;4.10;99.90;;;;;;5031597;28;20025;-43
2022/02/07 03:38:35;;;;;;;4.10;1.10;;;4.10;99.90;;;;;;5031586;28;20468;-44
2022/02/07 03:41:02;;;;;;;5.68;1.60;;;4.00;99.90;;;;;;5031697;28;20079;-43
2022/02/07 03:43:27;;;;;;;5.10;1.42;;;4.10;99.90;;;;;;5031099;28;20489;-43
2022/02/07 03:45:53;;;;;;;6.57;1.60;;;4.10;99.90;;;;;;5031732;28;20117;-46
2022/02/07 03:48:18;;;;;;;7.78;1.67;;;4.10;99.90;;;;;;5031353;28;20017;-43
2022/02/07 03:50:44;;;;;;;6.80;1.40;;;4.10;99.90;;;;;;5031820;28;20025;-43
2022/02/07 03:53:09;;;;;;;2.53;1.30;;;4.10;99.90;;;;;;5031224;28;20461;-45
2022/02/07 03:55:35;;;;;;;5.35;1.80;;;4.00;99.90;;;;;;5031662;28;20037;-44
2022/02/07 03:58:01;;;;;;;12.50;2.58;;;4.00;99.90;;;;;;5031487;28;20563;-47
2022/02/07 04:00:27;;;;;;;10.90;2.40;;;4.00;99.90;;;;;;5031199;28;20547;-43
2022/02/07 04:02:54;;;;;;;7.38;1.60;;;4.10;99.90;;;;;;5030976;28;20460;-43
2022/02/07 04:08:18;;;;;;;8.65;3.70;;;4.10;99.90;;;;;;5029591;28;20129;-44
2022/02/07 04:11:10;;;;;;;5.18;1.65;;;4.10;99.90;;;;;;5030806;28;20033;-45
2022/02/07 04:13:35;;;;;;;8.88;1.98;;;4.10;99.90;;;;;;5030842;28;20030;-44
2022/02/07 04:16:03;;;;;;;9.48;1.73;;;4.10;99.90;;;;;;5031072;28;20032;-42
2022/02/07 04:18:34;;;;;;;10.07;2.88;;;4.10;99.90;;;;;;5031076;28;20466;-44
2022/02/07 04:21:00;;;;;;;7.00;1.52;;;4.20;99.90;;;;;;5031050;28;20032;-44
2022/02/07 04:23:26;;;;;;;13.00;2.42;;;4.10;99.90;;;;;;5030814;28;20104;-44
2022/02/07 04:25:52;;;;;;;10.73;1.95;;;4.10;99.90;;;;;;5030872;28;20449;-44
2022/02/07 04:28:18;;;;;;;2.63;1.63;;;4.10;99.90;;;;;;5030813;28;20031;-43
2022/02/07 04:30:44;;;;;;;6.25;1.77;;;4.10;99.90;;;;;;5030798;28;20443;-45
2022/02/07 04:33:10;;;;;;;8.30;1.83;;;4.10;99.90;;;;;;5030680;28;20022;-46
2022/02/07 04:35:36;;;;;;;13.02;3.08;;;4.00;99.90;;;;;;5032577;28;20401;-45
2022/02/07 04:38:01;;;;;;;4.63;1.65;;;3.90;99.90;;;;;;5034339;28;20022;-44
2022/02/07 04:40:27;;;;;;;11.05;2.08;;;3.90;99.90;;;;;;5034335;28;20022;-47
2022/02/07 04:42:53;;;;;;;3.70;1.85;;;3.90;99.90;;;;;;5032749;28;20048;-44
2022/02/07 04:48:17;;;;;;;11.98;2.55;;;3.70;99.90;;;;;;5034427;28;20112;-42
2022/02/07 04:51:27;;;;;;;6.22;1.98;;;3.80;99.90;;;;;;5033900;28;20109;-42
2022/02/07 04:56:18;;;;;;;7.63;1.52;;;3.90;99.90;;;;;;5034274;28;20022;-48
2022/02/07 05:01:34;;;;;;;8.57;2.78;;;3.70;99.90;;;;;;5034487;28;20055;-44
2022/02/07 05:04:18;;;;;;;8.85;2.05;;;3.80;99.90;;;;;;5033993;28;20412;-44
2022/02/07 05:14:56;;;;;;;9.65;2.05;;;3.80;99.90;;;;;;5033924;28;20087;-47
2022/02/07 05:17:22;;;;;;;7.45;2.15;;;3.80;99.90;;;;;;5033477;28;20026;-43
2022/02/07 05:19:48;;;;;;;5.05;1.75;;;3.80;99.90;;;;;;5033354;28;20036;-42
2022/02/07 05:22:14;;;;;;;12.20;1.88;;;3.90;99.90;;;;;;5033898;28;20112;-46
2022/02/07 05:24:40;;;;;;;11.38;1.75;;;3.90;99.90;;;;;;5033217;28;20104;-45
2022/02/07 05:27:06;;;;;;;13.63;1.80;;;3.90;99.90;;;;;;5033496;28;20068;-44
2022/02/07 05:29:32;;;;;;;14.93;2.95;;;4.00;99.90;;;;;;5034183;28;20030;-42
2022/02/07 05:31:57;;;;;;;12.02;2.15;;;4.10;99.90;;;;;;5033312;28;20296;-45
2022/02/07 05:34:23;;;;;;;13.13;2.35;;;4.00;99.90;;;;;;5032889;28;20485;-46
2022/02/07 05:36:50;;;;;;;7.80;2.75;;;4.10;99.90;;;;;;5033192;28;20432;-47
2022/02/07 05:39:19;;;;;;;3.53;1.45;;;4.10;99.90;;;;;;5033110;28;20021;-43
2022/02/07 05:41:45;;;;;;;11.35;2.38;;;4.10;99.90;;;;;;5033157;28;20018;-45
2022/02/07 05:44:13;;;;;;;8.65;2.70;;;4.10;99.90;;;;;;5032871;28;20024;-42
2022/02/07 05:46:38;;;;;;;10.35;2.80;;;4.10;99.90;;;;;;5032529;28;20076;-43
2022/02/07 05:49:04;;;;;;;11.38;2.38;;;4.20;99.90;;;;;;5031665;28;20382;-44
2022/02/07 05:51:30;;;;;;;8.68;2.85;;;4.20;99.90;;;;;;5033046;28;20018;-43
2022/02/07 05:53:55;;;;;;;14.43;1.98;;;4.20;99.90;;;;;;5032735;28;20030;-44
2022/02/07 05:56:21;;;;;;;10.10;1.73;;;4.10;99.90;;;;;;5033236;28;20156;-43
2022/02/07 05:58:46;;;;;;;8.32;2.72;;;4.10;99.90;;;;;;5033022;28;20053;-44
2022/02/07 06:01:12;;;;;;;9.60;1.90;;;4.10;99.90;;;;;;5032576;28;20029;-44
2022/02/07 06:03:38;;;;;;;11.43;1.98;;;4.10;99.90;;;;;;5032568;28;20099;-47
2022/02/07 06:06:03;;;;;;;16.85;2.35;;;4.20;99.90;;;;;;5032305;28;20382;-43
2022/02/07 06:08:31;;;;;;;14.60;2.03;;;4.10;99.90;;;;;;5032431;28;20132;-44
2022/02/07 06:11:00;;;;;;;8.60;2.20;;;4.10;99.90;;;;;;5032030;28;20018;-44
2022/02/07 06:13:26;;;;;;;14.00;2.17;;;4.10;99.90;;;;;;5032207;28;20013;-44
2022/02/07 06:15:51;;;;;;;16.30;2.58;;;4.10;99.90;;;;;;5032486;28;20096;-44
2022/02/07 06:18:19;;;;;;;11.07;2.58;;;4.10;99.90;;;;;;5032352;28;20021;-45
2022/02/07 06:20:44;;;;;;;9.85;1.92;;;4.20;99.90;;;;;;5032377;28;20100;-44
2022/02/07 06:23:10;;;;;;;8.80;2.05;;;4.20;99.90;;;;;;5032136;28;20101;-46
2022/02/07 06:25:35;;;;;;;11.77;2.30;;;4.20;99.90;;;;;;5032268;28;20033;-42
2022/02/07 06:28:01;;;;;;;11.15;2.35;;;4.30;99.90;;;;;;5032122;28;20101;-45
2022/02/07 06:30:26;;;;;;;12.90;2.20;;;4.30;99.90;;;;;;5032137;28;20029;-47
2022/02/07 06:32:52;;;;;;;7.72;2.03;;;4.30;99.90;;;;;;5031799;28;20029;-44
2022/02/07 06:35:17;;;;;;;9.45;2.25;;;4.30;99.90;;;;;;5032087;28;20480;-44
2022/02/07 06:37:43;;;;;;;13.63;1.90;;;4.40;99.90;;;;;;5032048;28;20041;-46
2022/02/07 06:40:10;;;;;;;6.97;3.13;;;4.40;99.90;;;;;;5031952;28;20029;-43
2022/02/07 06:42:35;;;;;;;12.38;2.45;;;4.50;99.90;;;;;;5031898;28;20100;-44
2022/02/07 06:45:02;;;;;;;11.65;2.72;;;4.50;99.90;;;;;;5030632;28;20056;-45
2022/02/07 06:47:28;;;;;;;9.20;2.40;;;4.50;99.90;;;;;;5031877;28;20029;-46
2022/02/07 06:49:54;;;;;;;15.65;2.72;;;4.50;99.90;;;;;;5031760;28;20018;-46
2022/02/07 06:52:19;;;;;;;10.30;2.15;;;4.50;99.90;;;;;;5031971;28;20107;-44
2022/02/07 06:54:45;;;;;;;11.35;2.20;;;4.60;99.90;;;;;;5031398;28;20102;-44
2022/02/07 06:57:10;;;;;;;14.85;2.17;;;4.60;99.90;;;;;;5031254;28;20144;-46
2022/02/07 06:59:42;;;;;;;10.00;2.00;;;4.60;99.90;;;;;;5031429;28;20053;-43
2022/02/07 07:02:09;;;;;;;11.68;2.88;;;4.60;99.90;;;;;;5031825;28;20496;-46
2022/02/07 07:04:35;;;;;;;14.40;2.65;;;4.70;99.90;;;;;;5031287;28;20045;-44
2022/02/07 07:07:00;;;;;;;8.15;2.63;;;4.70;99.90;;;;;;5031516;28;20484;-44
2022/02/07 07:09:26;;;;;;;11.40;2.40;;;4.70;99.90;;;;;;5030990;28;20029;-45
2022/02/07 07:11:56;;;;;;;5.65;2.00;;;4.70;99.90;;;;;;5031565;28;20052;-43
2022/02/07 07:14:31;;;;;;;13.73;2.33;;;4.70;99.90;;;;;;5031421;28;20030;-44
2022/02/07 07:16:58;;;;;;;15.27;2.28;;;4.70;99.90;;;;;;5031504;28;20021;-46
2022/02/07 07:19:26;;;;;;;11.25;2.97;;;4.70;99.90;;;;;;5031564;28;20018;-48
2022/02/07 07:21:52;;;;;;;12.02;3.17;;;4.70;99.90;;;;;;5031560;28;20041;-47
2022/02/07 07:24:18;;;;;;;13.25;2.60;;;4.70;99.90;;;;;;5031167;28;20441;-47
2022/02/07 07:26:44;;;;;;;16.05;2.70;;;4.70;99.90;;;;;;5031257;28;20151;-46
2022/02/07 07:29:14;;;;;;;16.13;2.63;;;4.70;99.90;;;;;;5031483;28;20026;-44
2022/02/07 07:31:46;;;;;;;13.23;2.55;;;4.70;99.90;;;;;;5031485;28;20420;-45
2022/02/07 07:34:17;;;;;;;10.20;3.10;;;4.60;99.90;;;;;;5031441;28;20503;-44
2022/02/07 07:36:44;;;;;;;12.85;3.30;;;4.60;99.90;;;;;;5030163;28;20091;-44
2022/02/07 07:39:14;;;;;;;6.07;1.88;;;4.70;99.90;;;;;;5031389;28;20400;-47
2022/02/07 07:41:41;;;;;;;17.35;1.90;;;4.80;99.90;;;;;;5031548;28;20429;-44
2022/02/07 07:44:08;;;;;;;8.02;1.63;;;4.80;99.90;;;;;;5031003;28;20025;-47
2022/02/07 07:46:34;;;;;;;8.85;2.33;;;4.80;99.90;;;;;;5031150;28;20040;-44
2022/02/07 07:49:09;;;;;;;5.65;2.00;;;4.80;99.90;;;;;;5031370;28;20022;-46
2022/02/07 07:51:43;;;;;;;12.73;2.20;;;4.80;99.90;;;;;;5031256;28;20021;-43
2022/02/07 08:02:28;;;;;;;4.90;1.80;;;5.10;99.90;;;;;;5031601;28;20036;-43
2022/02/07 08:04:55;;;;;;;6.65;1.92;;;5.10;99.90;;;;;;5030927;28;20029;-45
2022/02/07 08:12:34;;;;;;;9.55;2.15;;;5.10;99.90;;;;;;5034862;28;20036;-44
2022/02/07 08:14:59;;;;;;;8.73;2.53;;;5.10;99.90;;;;;;5026967;28;20136;-46
2022/02/07 08:17:25;;;;;;;5.10;1.85;;;5.10;99.90;;;;;;5026280;28;20053;-45
2022/02/07 08:19:52;;;;;;;15.82;2.15;;;5.20;99.90;;;;;;5033363;28;20396;-43
2022/02/07 08:22:19;;;;;;;8.60;2.58;;;5.20;99.90;;;;;;5025759;28;20048;-45
2022/02/07 08:24:45;;;;;;;7.13;3.17;;;5.20;99.90;;;;;;5019764;28;20169;-49
2022/02/07 08:27:11;;;;;;;11.32;2.15;;;5.10;99.90;;;;;;5028602;28;20560;-46
2022/02/07 08:29:36;;;;;;;6.93;2.25;;;5.20;99.90;;;;;;5028655;28;20100;-43
2022/02/07 08:32:02;;;;;;;8.10;2.55;;;5.20;99.90;;;;;;5024261;28;20022;-43
2022/02/07 08:34:29;;;;;;;6.38;1.80;;;5.10;99.90;;;;;;5032148;28;20041;-47
2022/02/07 08:36:55;;;;;;;5.88;2.00;;;5.30;99.90;;;;;;5026266;28;20021;-47
2022/02/07 08:39:21;;;;;;;6.85;1.75;;;5.30;99.90;;;;;;5025269;28;20022;-45
2022/02/07 08:41:47;;;;;;;9.50;2.10;;;5.30;99.90;;;;;;5026053;28;20549;-44
2022/02/07 08:44:13;;;;;;;14.40;1.77;;;5.30;99.90;;;;;;5014293;28;20120;-45
2022/02/07 08:46:39;;;;;;;7.97;2.38;;;5.30;99.90;;;;;;5025310;28;20021;-46
2022/02/07 08:49:04;;;;;;;4.95;1.60;;;5.40;99.90;;;;;;5034506;28;20083;-45
2022/02/07 08:51:32;;;;;;;14.00;3.33;;;5.40;99.90;;;;;;5023656;28;20037;-46
2022/02/07 08:54:04;;;;;;;9.63;1.98;;;5.50;99.90;;;;;;5015903;28;20092;-43
2022/02/07 08:56:47;;;;;;;13.07;2.72;;;5.50;99.90;;;;;;5016034;28;20052;-46
2022/02/07 08:59:13;;;;;;;15.68;2.88;;;5.60;99.90;;;;;;5024606;28;20468;-46
2022/02/07 09:02:20;;;;;;;13.98;2.00;;;5.70;99.90;;;;;;5023639;28;20113;-43
2022/02/07 09:04:45;;;;;;;10.40;1.83;;;5.80;99.90;;;;;;5012813;28;20417;-46
2022/02/07 09:07:19;;;;;;;15.55;3.80;;;5.80;99.90;;;;;;5024049;28;20029;-50
2022/02/07 09:09:45;;;;;;;7.83;1.70;;;5.80;99.90;;;;;;5028077;28;20112;-46
2022/02/07 09:12:12;;;;;;;11.35;2.28;;;5.90;99.90;;;;;;5021708;28;20045;-45
2022/02/07 09:14:44;;;;;;;12.90;3.10;;;5.80;99.90;;;;;;5039381;28;20029;-44
2022/02/07 09:17:11;;;;;;;10.50;1.92;;;5.80;99.90;;;;;;5033614;28;20400;-48
2022/02/07 09:19:37;;;;;;;16.55;1.92;;;5.90;99.90;;;;;;5017463;28;20026;-44
2022/02/07 09:22:04;;;;;;;9.27;2.53;;;5.90;99.90;;;;;;5024932;28;20117;-45
2022/02/07 09:24:31;;;;;;;6.65;2.03;;;5.90;99.90;;;;;;5013891;28;20029;-46
2022/02/07 09:26:56;;;;;;;10.10;2.08;;;6.00;99.90;;;;;;5013561;28;20022;-46
2022/02/07 09:29:22;;;;;;;10.07;3.10;;;6.00;99.90;;;;;;5013669;28;20022;-46
2022/02/07 09:31:48;;;;;;;13.10;2.47;;;5.90;99.90;;;;;;5013677;28;20097;-44
2022/02/07 09:34:13;;;;;;;10.00;2.35;;;5.90;99.90;;;;;;5013426;28;20029;-47
2022/02/07 09:36:39;;;;;;;12.45;2.08;;;5.90;99.90;;;;;;5013402;28;20022;-50
2022/02/07 09:39:05;;;;;;;14.98;1.63;;;6.00;99.90;;;;;;5011605;28;20036;-46
2022/02/07 09:41:33;;;;;;;11.65;2.53;;;6.00;99.90;;;;;;5013285;28;20026;-47
2022/02/07 09:44:01;;;;;;;10.75;2.22;;;6.00;99.90;;;;;;5013131;28;20033;-46
2022/02/07 09:49:25;;;;;;;9.73;2.37;;;6.00;99.90;;;;;;5008477;28;20157;-45
2022/02/07 09:51:52;;;;;;;12.45;2.72;;;6.10;99.90;;;;;;5013369;28;20022;-44
2022/02/07 09:54:20;;;;;;;12.25;2.15;;;6.30;99.90;;;;;;5012891;28;20029;-47
2022/02/07 09:56:47;;;;;;;7.70;1.65;;;6.60;99.90;;;;;;5013034;28;20397;-48
2022/02/07 09:59:14;;;;;;;9.07;2.33;;;6.60;99.90;;;;;;5013095;28;20022;-47
2022/02/07 10:01:45;;;;;;;8.57;1.70;;;6.70;99.90;;;;;;5013108;28;20397;-44
2022/02/07 10:04:21;;;;;;;14.50;2.75;;;6.60;99.90;;;;;;5012993;28;20018;-47
2022/02/07 10:09:39;;;;;;;9.68;2.00;;;6.50;99.90;;;;;;5013085;28;20481;-48
2022/02/07 10:14:43;;;;;;;10.27;2.10;;;6.40;99.90;;;;;;5012991;28;20152;-45
2022/02/07 10:20:17;;;;;;;9.60;2.03;;;6.50;99.90;;;;;;5012773;28;20061;-44
2022/02/07 10:23:07;;;;;;;12.95;2.75;;;6.50;99.90;;;;;;5012452;28;20583;-44
2022/02/07 10:37:53;;;;;;;7.28;1.85;;;6.50;99.90;;;;;;5012155;28;20037;-47
2022/02/07 10:40:31;;;;;;;8.02;2.15;;;6.50;99.90;;;;;;4951791;29;20031;-45
2022/02/07 10:48:38;;;;;;;5.75;1.88;;;6.60;99.90;;;;;;5032233;28;20421;-49
2022/02/07 10:51:14;;;;;;;5.38;2.20;;;6.60;99.90;;;;;;5022129;28;20057;-45
2022/02/07 10:53:46;;;;;;;11.30;2.47;;;6.60;99.90;;;;;;5011112;28;20497;-51
2022/02/07 10:56:14;;;;;;;12.23;2.05;;;6.60;99.90;;;;;;5012298;28;20042;-46
2022/02/07 10:58:40;;;;;;;4.45;1.85;;;6.60;99.90;;;;;;5017867;28;20040;-43
2022/02/07 11:01:15;;;;;;;9.15;2.33;;;6.60;99.90;;;;;;5031734;28;20404;-44
2022/02/07 11:03:51;;;;;;;8.95;2.10;;;6.70;99.90;;;;;;5018127;28;20026;-47
2022/02/07 11:06:22;;;;;;;11.07;2.30;;;6.70;99.90;;;;;;5031571;28;20055;-48
2022/02/07 11:26:01;;;;;;;9.90;3.20;;;6.70;99.90;;;;;;5012907;28;20496;-44
2022/02/07 11:27:51;;;;;;;8.48;1.73;;;6.60;99.90;;;;;;5016399;28;20040;-57
2022/02/07 11:30:19;;;;;;;8.57;2.70;;;6.50;99.90;;;;;;5031427;28;20036;-44
2022/02/07 11:32:46;;;;;;;9.35;1.95;;;6.60;99.90;;;;;;5019806;28;20033;-47
2022/02/07 11:35:28;;;;;;;12.80;2.53;;;6.60;99.90;;;;;;5017742;28;20017;-48
2022/02/07 11:38:02;;;;;;;4.38;1.08;;;6.50;99.90;;;;;;5026854;28;20032;-52
2022/02/07 11:40:35;;;;;;;5.32;1.70;;;6.70;99.90;;;;;;5021916;28;20060;-45
2022/02/07 11:43:13;;;;;;;10.38;2.80;;;6.90;99.90;;;;;;5030923;28;20025;-45
2022/02/07 11:45:57;;;;;;;4.55;1.50;;;7.00;99.90;;;;;;5016652;28;20049;-47
2022/02/07 11:48:25;;;;;;;5.97;1.65;;;7.10;99.90;;;;;;5015507;28;20030;-51
2022/02/07 11:50:55;;;;;;;9.45;1.75;;;7.20;99.90;;;;;;5015467;28;20097;-48
2022/02/07 11:53:26;;;;;;;9.80;2.72;;;7.30;99.90;;;;;;5015175;28;20025;-45
2022/02/07 11:56:19;;;;;;;6.18;2.45;;;7.30;99.90;;;;;;5017952;28;20088;-48
2022/02/07 11:59:23;;;;;;;3.88;2.05;;;7.40;99.90;;;;;;5024759;28;20063;-49
2022/02/07 12:02:17;;;;;;;11.10;2.25;;;7.40;99.90;;;;;;5034103;28;20155;-48
2022/02/07 12:04:48;;;;;;;9.45;2.75;;;7.50;99.90;;;;;;5029777;28;20022;-47
2022/02/07 12:07:30;;;;;;;8.25;1.70;;;7.50;99.90;;;;;;5034402;28;20029;-50
2022/02/07 12:09:59;;;;;;;8.07;1.70;;;7.50;99.90;;;;;;5024424;28;20032;-46
2022/02/07 12:12:37;;;;;;;12.55;3.92;;;7.50;99.90;;;;;;5020673;28;20045;-51
2022/02/07 12:15:06;;;;;;;11.00;2.30;;;7.60;99.90;;;;;;5050024;28;20032;-45
2022/02/07 12:17:42;;;;;;;6.10;1.80;;;7.70;99.90;;;;;;5033234;28;20432;-46
2022/02/07 12:20:08;;;;;;;;;;;7.60;99.90;;;;;;5033782;28;20037;-47
2022/02/07 12:22:55;;;;;;;10.10;1.88;;;7.60;99.90;;;;;;5032966;28;19909;-46
2022/02/07 12:25:34;;;;;;;4.47;1.85;;;7.60;99.90;;;;;;5028409;28;20037;-45
2022/02/07 12:28:03;;;;;;;11.43;1.85;;;7.60;99.90;;;;;;5014899;28;20034;-45
2022/02/07 12:30:31;;;;;;;7.70;2.25;;;7.70;99.90;;;;;;5024022;28;20057;-47
2022/02/07 12:33:04;;;;;;;8.90;1.85;;;7.70;99.90;;;;;;5033794;28;20026;-48
2022/02/07 12:35:31;;;;;;;13.68;2.47;;;7.70;99.90;;;;;;5046140;28;20025;-47
2022/02/07 12:37:57;;;;;;;6.78;2.38;;;7.80;99.90;;;;;;5055524;28;20025;-46
2022/02/07 12:40:23;;;;;;;10.40;2.03;;;7.70;99.90;;;;;;5035282;28;20040;-45
2022/02/07 12:42:55;;;;;;;12.07;3.13;;;7.80;99.90;;;;;;5018922;28;20060;-45
2022/02/07 12:45:25;;;;;;;10.75;2.20;;;7.90;99.90;;;;;;5031648;28;20032;-47
2022/02/07 12:47:56;;;;;;;6.50;2.67;;;7.90;99.90;;;;;;5014415;28;20425;-50
2022/02/07 12:50:23;;;;;;;5.97;1.95;;;7.90;99.90;;;;;;5013296;28;20045;-47
2022/02/07 12:52:53;;;;;;;8.60;2.53;;;7.90;99.90;;;;;;5014001;28;20026;-46
2022/02/07 12:55:19;;;;;;;10.45;2.20;;;7.90;99.90;;;;;;5013393;28;20394;-46
2022/02/07 12:57:45;;;;;;;12.35;3.00;;;7.90;99.90;;;;;;5017090;28;20025;-47
2022/02/07 13:00:13;;;;;;;7.95;2.05;;;7.90;99.90;;;;;;5034076;28;20505;-48
2022/02/07 13:02:47;;;;;;;9.15;2.28;;;7.90;99.90;;;;;;5032790;28;20034;-46
2022/02/07 13:05:20;;;;;;;8.57;2.22;;;7.80;99.90;;;;;;5033684;28;20029;-47
2022/02/07 13:07:49;;;;;;;10.75;1.77;;;7.80;99.90;;;;;;5033579;28;20564;-48
2022/02/07 13:10:21;;;;;;;14.10;2.65;;;7.80;99.90;;;;;;5025561;28;20076;-49
2022/02/07 13:15:34;;;;;;;8.43;2.03;;;8.00;99.90;;;;;;5015717;28;20022;-46
2022/02/07 13:18:06;;;;;;;5.93;1.58;;;8.00;99.90;;;;;;5033794;28;20036;-48
2022/02/07 13:20:33;;;;;;;7.55;1.88;;;8.00;99.90;;;;;;5033300;28;20021;-45
2022/02/07 13:23:12;;;;;;;16.23;3.65;;;8.10;99.90;;;;;;5033337;28;20107;-46
2022/02/07 13:25:48;;;;;;;6.43;2.15;;;8.00;99.90;;;;;;5033529;28;20547;-44
2022/02/07 13:28:28;;;;;;;10.27;2.03;;;8.00;99.90;;;;;;5026817;28;20218;-47
2022/02/07 13:30:56;;;;;;;9.40;1.73;;;8.00;99.90;;;;;;5013487;28;20028;-45
2022/02/07 13:33:22;;;;;;;12.52;1.58;;;8.00;99.90;;;;;;5013303;28;20084;-44
2022/02/07 13:35:51;;;;;;;7.32;2.60;;;7.90;99.90;;;;;;5037755;28;20025;-43
2022/02/07 13:38:19;;;;;;;8.30;1.75;;;7.90;99.90;;;;;;5051798;28;20605;-46
2022/02/07 13:40:46;;;;;;;6.28;2.13;;;7.90;99.90;;;;;;5052836;28;20056;-50
2022/02/07 13:43:24;;;;;;;9.10;1.77;;;7.90;99.90;;;;;;5052778;28;20025;-48
2022/02/07 13:45:58;;;;;;;4.75;1.80;;;7.90;99.90;;;;;;5051800;28;20025;-48
2022/02/07 13:48:26;;;;;;;10.35;2.10;;;7.90;99.90;;;;;;5037601;28;20055;-48
2022/02/07 13:50:54;;;;;;;12.45;2.30;;;7.90;99.90;;;;;;5033426;28;20032;-47
2022/02/07 13:53:21;;;;;;;4.20;1.60;;;8.00;99.90;;;;;;5028851;28;20547;-48
2022/02/07 13:55:49;;;;;;;7.65;1.77;;;7.90;99.90;;;;;;5023416;28;20378;-60
2022/02/07 13:58:32;;;;;;;9.07;2.28;;;8.00;99.50;;;;;;5012148;28;20059;-46
2022/02/07 14:01:00;;;;;;;8.50;1.90;;;8.00;99.70;;;;;;5043478;28;20488;-47
2022/02/07 14:03:40;;;;;;;7.28;1.63;;;7.90;99.90;;;;;;5052401;28;20021;-48
2022/02/07 14:06:10;;;;;;;9.65;1.77;;;8.00;99.90;;;;;;5033736;28;20030;-46
2022/02/07 14:08:52;;;;;;;11.02;4.43;;;8.00;99.90;;;;;;5032164;28;20017;-51
2022/02/07 14:11:22;;;;;;;7.80;1.55;;;8.00;99.70;;;;;;5027333;28;20018;-49
2022/02/07 14:13:50;;;;;;;12.25;2.30;;;8.00;99.40;;;;;;5013045;28;20022;-45
2022/02/07 14:16:18;;;;;;;9.30;1.83;;;7.90;99.30;;;;;;5029438;28;20041;-49
2022/02/07 14:18:47;;;;;;;7.90;2.25;;;8.00;99.30;;;;;;5027023;28;20075;-44
2022/02/07 14:21:21;;;;;;;8.95;1.75;;;8.00;98.80;;;;;;5022844;28;20574;-45
2022/02/07 14:23:49;;;;;;;8.15;1.90;;;8.10;99.10;;;;;;5012123;28;20440;-45
2022/02/07 14:26:17;;;;;;;4.07;1.52;;;8.10;99.30;;;;;;5020321;28;20029;-45
2022/02/07 14:28:46;;;;;;;7.80;2.15;;;8.10;99.70;;;;;;5032268;28;20075;-44
2022/02/07 14:31:12;;;;;;;6.47;1.77;;;8.20;99.60;;;;;;5032674;28;20017;-46
2022/02/07 14:33:42;;;;;;;5.47;1.58;;;8.10;99.90;;;;;;5052074;28;20163;-44
2022/02/07 14:36:09;;;;;;;4.38;1.20;;;8.10;99.90;;;;;;5052295;28;20024;-44
2022/02/07 14:38:36;;;;;;;7.45;1.73;;;8.10;99.90;;;;;;5043048;28;20388;-44
2022/02/07 14:41:05;;;;;;;10.55;1.33;;;8.10;99.90;;;;;;5029748;28;20021;-44
2022/02/07 14:43:32;;;;;;;8.07;1.88;;;8.00;99.90;;;;;;5030027;28;20027;-49
2022/02/07 14:48:32;;;;;;;5.80;1.30;;;7.90;99.90;;;;;;5032119;28;20033;-47
2022/02/07 14:50:58;;;;;;;12.65;1.75;;;7.80;99.90;;;;;;5031892;28;20029;-45
2022/02/07 14:53:24;;;;;;;8.35;1.75;;;7.90;99.90;;;;;;5030215;28;20508;-48
2022/02/07 14:55:51;;;;;;;5.53;1.55;;;7.80;99.90;;;;;;5032142;28;20096;-48
2022/02/07 14:58:17;;;;;;;5.70;1.65;;;7.80;99.90;;;;;;5031722;28;20052;-47
2022/02/07 15:00:42;;;;;;;7.60;1.83;;;7.80;99.90;;;;;;5031709;28;20144;-53
2022/02/07 15:03:11;;;;;;;10.65;1.85;;;7.80;99.90;;;;;;5031176;28;20027;-46
2022/02/07 15:05:37;;;;;;;8.27;2.20;;;7.80;99.90;;;;;;5031411;28;20454;-50
2022/02/07 15:08:04;;;;;;;6.20;1.30;;;7.80;99.90;;;;;;5031737;28;20037;-47
2022/02/07 15:10:31;;;;;;;12.98;2.00;;;7.80;99.90;;;;;;5031635;28;20025;-46
2022/02/07 15:12:57;;;;;;;7.60;1.80;;;7.80;99.90;;;;;;5031109;28;20025;-50
2022/02/07 15:15:23;;;;;;;14.45;2.20;;;7.90;99.90;;;;;;5031507;28;20108;-49
2022/02/07 15:17:48;;;;;;;11.20;1.60;;;7.90;99.90;;;;;;5031360;28;20268;-46
2022/02/07 15:20:14;;;;;;;10.98;2.22;;;7.90;99.90;;;;;;5030531;28;20040;-47
2022/02/07 15:22:46;;;;;;;5.63;1.92;;;7.80;99.90;;;;;;5031554;28;20033;-51
2022/02/07 15:25:18;;;;;;;5.47;1.83;;;7.70;99.90;;;;;;5031533;28;20025;-48
2022/02/07 15:27:45;;;;;;;11.23;2.58;;;7.60;99.90;;;;;;5031132;28;20036;-51
2022/02/07 15:30:12;;;;;;;8.30;1.90;;;7.50;99.90;;;;;;5031093;28;20029;-49
2022/02/07 15:32:41;;;;;;;8.52;2.05;;;7.50;99.90;;;;;;5031305;28;20025;-48